Time;durP1;ratioP1;P1;durP2;ratioP2;P2;SDS_P1;SDS_P2;PMS_P1;PMS_P2;Temp;Humidity;BMP_temperature;BMP_pressure;BME280_temperature;BME280_humidity;BME280_pressure;Samples;Min_cycle;Max_cycle;Signal;HPM_P1;HPM_P2
2021/04/16 00:00:11;;;;;;;25.87;18.40;;;;;;;;;;5036349;28;20256;-78
2021/04/16 00:02:36;;;;;;;23.20;17.13;;;;;;;;;;5036115;28;20192;-78
2021/04/16 00:05:02;;;;;;;26.20;18.87;;;;;;;;;;5036449;28;20193;-77
2021/04/16 00:07:27;;;;;;;24.20;18.50;;;;;;;;;;5035786;28;20186;-78
2021/04/16 00:09:53;;;;;;;24.20;18.63;;;;;;;;;;5036021;28;20259;-77
2021/04/16 00:12:18;;;;;;;27.43;19.20;;;;;;;;;;5034094;28;20251;-78
2021/04/16 00:14:44;;;;;;;25.90;18.57;;;;;;;;;;5033177;28;20222;-77
2021/04/16 00:17:09;;;;;;;29.23;19.73;;;;;;;;;;5034123;28;20204;-78
2021/04/16 00:19:34;;;;;;;25.70;18.90;;;;;;;;;;5032774;28;20176;-78
2021/04/16 00:22:00;;;;;;;30.53;19.77;;;;;;;;;;5035173;28;20266;-78
2021/04/16 00:24:25;;;;;;;30.40;20.53;;;;;;;;;;5036167;28;20263;-77
2021/04/16 00:26:51;;;;;;;28.00;20.27;;;;;;;;;;5036820;28;20200;-77
2021/04/16 00:29:16;;;;;;;30.23;19.63;;;;;;;;;;5034713;28;20173;-77
2021/04/16 00:31:50;;;;;;;28.23;20.27;;;;;;;;;;5035973;28;20545;-78
2021/04/16 00:34:17;;;;;;;32.23;22.13;;;;;;;;;;5036349;28;20189;-78
2021/04/16 00:36:42;;;;;;;32.73;21.77;;;;;;;;;;5035834;28;20255;-78
2021/04/16 00:39:07;;;;;;;32.07;20.77;;;;;;;;;;5035970;28;20267;-78
2021/04/16 00:41:33;;;;;;;29.03;20.97;;;;;;;;;;5035444;28;20203;-78
2021/04/16 00:43:58;;;;;;;34.10;21.70;;;;;;;;;;5035162;28;20177;-78
2021/04/16 00:46:30;;;;;;;32.33;21.40;;;;;;;;;;5034875;28;20200;-78
2021/04/16 00:48:58;;;;;;;39.43;22.67;;;;;;;;;;5033971;28;20173;-77
2021/04/16 00:51:30;;;;;;;37.67;22.47;;;;;;;;;;5034922;28;20203;-77
2021/04/16 00:53:56;;;;;;;33.77;21.43;;;;;;;;;;5033068;28;20590;-77
2021/04/16 00:56:22;;;;;;;36.87;22.80;;;;;;;;;;5033497;28;20177;-77
2021/04/16 00:58:47;;;;;;;39.30;22.57;;;;;;;;;;5034986;28;20180;-77
2021/04/16 01:01:13;;;;;;;34.67;22.90;;;;;;;;;;5035173;28;20227;-77
2021/04/16 01:03:38;;;;;;;34.60;23.03;;;;;;;;;;5035508;28;20629;-77
2021/04/16 01:06:05;;;;;;;34.47;22.50;;;;;;;;;;5035668;28;20203;-77
2021/04/16 01:08:31;;;;;;;36.43;24.03;;;;;;;;;;5035608;28;20180;-77
2021/04/16 01:10:57;;;;;;;40.33;23.20;;;;;;;;;;5035408;28;20173;-77
2021/04/16 01:13:22;;;;;;;38.60;24.27;;;;;;;;;;5035388;28;20263;-77
2021/04/16 01:15:54;;;;;;;45.17;25.73;;;;;;;;;;5034693;28;20238;-78
2021/04/16 01:18:22;;;;;;;41.20;24.70;;;;;;;;;;5034405;28;20619;-77
2021/04/16 01:20:48;;;;;;;41.90;24.70;;;;;;;;;;5034642;28;20196;-78
2021/04/16 01:23:49;;;;;;;40.53;25.33;;;;;;;;;;5034891;28;20613;-77
2021/04/16 01:26:28;;;;;;;42.00;25.17;;;;;;;;;;5032524;28;20200;-78
2021/04/16 01:28:56;;;;;;;44.43;24.80;;;;;;;;;;5034368;28;20646;-78
2021/04/16 01:31:24;;;;;;;44.20;26.17;;;;;;;;;;5034914;28;20168;-77
2021/04/16 01:33:50;;;;;;;41.00;25.13;;;;;;;;;;5034002;28;20645;-77
2021/04/16 01:36:20;;;;;;;43.13;25.43;;;;;;;;;;5014828;28;20262;-78
2021/04/16 01:38:45;;;;;;;41.53;26.70;;;;;;;;;;5015249;28;20232;-77
2021/04/16 01:41:12;;;;;;;43.07;25.03;;;;;;;;;;5014963;28;20539;-77
2021/04/16 01:43:40;;;;;;;50.97;28.03;;;;;;;;;;5014686;28;20178;-78
2021/04/16 01:46:07;;;;;;;46.50;27.07;;;;;;;;;;5014841;28;20224;-78
2021/04/16 01:48:38;;;;;;;44.93;27.07;;;;;;;;;;5014658;28;20177;-77
2021/04/16 01:51:03;;;;;;;45.27;26.50;;;;;;;;;;5015126;28;20256;-77
2021/04/16 01:53:29;;;;;;;44.80;27.17;;;;;;;;;;5014819;28;20261;-77
2021/04/16 01:55:54;;;;;;;44.93;26.30;;;;;;;;;;5014517;28;20178;-77
2021/04/16 01:58:19;;;;;;;39.30;25.70;;;;;;;;;;5014916;28;20624;-77
2021/04/16 02:00:45;;;;;;;36.10;24.33;;;;;;;;;;5014402;28;20234;-77
2021/04/16 02:03:10;;;;;;;38.53;24.97;;;;;;;;;;5014491;28;20616;-77
2021/04/16 02:05:36;;;;;;;36.23;23.00;;;;;;;;;;5014282;28;20200;-77
2021/04/16 02:08:01;;;;;;;37.13;23.23;;;;;;;;;;5014108;28;20223;-77
2021/04/16 02:10:26;;;;;;;37.43;25.73;;;;;;;;;;5014521;28;20169;-77
2021/04/16 02:12:52;;;;;;;36.60;25.67;;;;;;;;;;5014321;28;20631;-77
2021/04/16 02:15:17;;;;;;;41.27;25.63;;;;;;;;;;5014599;28;20173;-77
2021/04/16 02:17:43;;;;;;;40.20;26.97;;;;;;;;;;5014264;28;20169;-77
2021/04/16 02:20:15;;;;;;;43.33;28.23;;;;;;;;;;5014143;28;20173;-77
2021/04/16 02:22:41;;;;;;;46.60;27.57;;;;;;;;;;5014674;28;20173;-77
2021/04/16 02:25:07;;;;;;;43.73;27.70;;;;;;;;;;5014475;28;20254;-77
2021/04/16 02:27:32;;;;;;;42.73;27.13;;;;;;;;;;5013960;28;20207;-77
2021/04/16 02:29:58;;;;;;;39.20;25.23;;;;;;;;;;5013526;28;20607;-77
2021/04/16 02:32:24;;;;;;;34.77;22.97;;;;;;;;;;5014391;28;20268;-76
2021/04/16 02:34:50;;;;;;;36.20;23.80;;;;;;;;;;5014556;28;20177;-77
2021/04/16 02:37:17;;;;;;;34.97;23.43;;;;;;;;;;5013266;28;20612;-77
2021/04/16 02:39:43;;;;;;;34.80;21.47;;;;;;;;;;5013953;28;20229;-77
2021/04/16 02:42:09;;;;;;;29.80;20.90;;;;;;;;;;5013016;28;20215;-77
2021/04/16 02:44:34;;;;;;;28.37;19.70;;;;;;;;;;5014316;28;20212;-77
2021/04/16 02:47:00;;;;;;;27.50;18.87;;;;;;;;;;5014725;28;20201;-77
2021/04/16 02:49:25;;;;;;;28.40;19.27;;;;;;;;;;5014715;28;20173;-78
2021/04/16 02:51:51;;;;;;;26.70;18.13;;;;;;;;;;5014398;28;20173;-77
2021/04/16 02:54:17;;;;;;;30.03;18.17;;;;;;;;;;5014379;28;20171;-77
2021/04/16 02:56:42;;;;;;;35.63;19.10;;;;;;;;;;5013992;28;20173;-77
2021/04/16 02:59:08;;;;;;;31.13;19.00;;;;;;;;;;5014034;28;20216;-77
2021/04/16 03:01:34;;;;;;;29.77;19.03;;;;;;;;;;5014016;28;20169;-77
2021/04/16 03:03:59;;;;;;;30.47;19.57;;;;;;;;;;5013684;28;20181;-77
2021/04/16 03:06:25;;;;;;;31.63;20.33;;;;;;;;;;5013554;28;20193;-77
2021/04/16 03:08:53;;;;;;;31.30;19.90;;;;;;;;;;5014086;28;20171;-77
2021/04/16 03:11:19;;;;;;;31.37;20.97;;;;;;;;;;5013658;28;20176;-77
2021/04/16 03:13:44;;;;;;;33.93;21.17;;;;;;;;;;5013885;28;20518;-78
2021/04/16 03:16:09;;;;;;;33.87;20.43;;;;;;;;;;5013848;28;20251;-77
2021/04/16 03:18:35;;;;;;;26.30;19.57;;;;;;;;;;5014086;28;20277;-77
2021/04/16 03:21:00;;;;;;;29.63;20.83;;;;;;;;;;5013862;28;20582;-77
2021/04/16 03:23:25;;;;;;;30.57;20.90;;;;;;;;;;5014159;28;20562;-77
2021/04/16 03:25:50;;;;;;;33.00;21.03;;;;;;;;;;5012595;28;20678;-77
2021/04/16 03:28:16;;;;;;;30.80;20.50;;;;;;;;;;5014060;28;20170;-77
2021/04/16 03:30:41;;;;;;;29.97;21.17;;;;;;;;;;5013404;28;20624;-77
2021/04/16 03:33:07;;;;;;;29.03;20.70;;;;;;;;;;5013367;28;20180;-77
2021/04/16 03:35:32;;;;;;;36.50;22.07;;;;;;;;;;5013630;28;20185;-77
2021/04/16 03:37:57;;;;;;;34.67;22.43;;;;;;;;;;5013184;28;20249;-77
2021/04/16 03:40:28;;;;;;;37.43;22.63;;;;;;;;;;5013824;28;20189;-77
2021/04/16 03:42:53;;;;;;;34.23;22.63;;;;;;;;;;5014154;28;20561;-77
2021/04/16 03:45:19;;;;;;;33.20;21.50;;;;;;;;;;5013559;28;20201;-77
2021/04/16 03:47:45;;;;;;;37.40;21.73;;;;;;;;;;5014168;28;20283;-77
2021/04/16 03:50:11;;;;;;;34.70;21.63;;;;;;;;;;5017081;28;20181;-77
2021/04/16 03:52:36;;;;;;;33.90;23.30;;;;;;;;;;5017035;28;20189;-77
2021/04/16 03:55:02;;;;;;;33.67;22.40;;;;;;;;;;5017303;28;20551;-77
2021/04/16 03:57:27;;;;;;;40.30;23.53;;;;;;;;;;5017300;28;20228;-77
2021/04/16 03:59:55;;;;;;;37.40;21.87;;;;;;;;;;5017295;28;20228;-77
2021/04/16 04:02:20;;;;;;;40.87;23.53;;;;;;;;;;5017162;28;20173;-77
2021/04/16 04:04:45;;;;;;;36.00;22.70;;;;;;;;;;5016785;28;20176;-77
2021/04/16 04:07:11;;;;;;;34.00;22.23;;;;;;;;;;5016812;28;20180;-77
2021/04/16 04:09:36;;;;;;;36.73;22.23;;;;;;;;;;5017115;28;20303;-77
2021/04/16 04:12:03;;;;;;;37.73;22.20;;;;;;;;;;5016521;28;20223;-77
2021/04/16 04:14:28;;;;;;;35.13;21.73;;;;;;;;;;5016731;28;20180;-77
2021/04/16 04:16:55;;;;;;;37.63;22.93;;;;;;;;;;5016917;28;20170;-77
2021/04/16 04:19:21;;;;;;;36.23;22.53;;;;;;;;;;5017242;28;20177;-77
2021/04/16 04:21:47;;;;;;;37.97;24.30;;;;;;;;;;5017058;28;20520;-77
2021/04/16 04:24:13;;;;;;;38.50;23.20;;;;;;;;;;5016468;28;20263;-77
2021/04/16 04:26:38;;;;;;;33.63;21.70;;;;;;;;;;5016736;28;20319;-77
2021/04/16 04:29:04;;;;;;;33.27;22.70;;;;;;;;;;5016154;28;20169;-77
2021/04/16 04:31:29;;;;;;;35.37;23.07;;;;;;;;;;5016887;28;20177;-77
2021/04/16 04:33:54;;;;;;;34.40;22.10;;;;;;;;;;5016201;28;20177;-77
2021/04/16 04:36:20;;;;;;;34.07;21.47;;;;;;;;;;5016571;28;20224;-77
2021/04/16 04:38:45;;;;;;;29.37;21.47;;;;;;;;;;5016162;28;20280;-77
2021/04/16 04:41:10;;;;;;;40.33;22.60;;;;;;;;;;5016225;28;20220;-77
2021/04/16 04:43:36;;;;;;;42.67;26.90;;;;;;;;;;5016427;28;20173;-77
2021/04/16 04:46:01;;;;;;;65.40;34.67;;;;;;;;;;5016020;28;20197;-77
2021/04/16 04:48:26;;;;;;;33.97;21.53;;;;;;;;;;5015844;28;20180;-77
2021/04/16 04:50:51;;;;;;;29.37;19.97;;;;;;;;;;5016184;28;20166;-77
2021/04/16 04:53:17;;;;;;;26.67;18.93;;;;;;;;;;5016164;28;20170;-77
2021/04/16 04:55:42;;;;;;;28.90;18.90;;;;;;;;;;5016178;28;20315;-77
2021/04/16 04:58:08;;;;;;;27.77;19.43;;;;;;;;;;5015894;28;20173;-77
2021/04/16 05:00:33;;;;;;;25.97;18.10;;;;;;;;;;5014874;28;20741;-77
2021/04/16 05:02:58;;;;;;;26.47;18.20;;;;;;;;;;5015563;28;20197;-77
2021/04/16 05:05:24;;;;;;;31.83;20.80;;;;;;;;;;5016028;28;20288;-77
2021/04/16 05:07:49;;;;;;;27.97;19.57;;;;;;;;;;5015792;28;20173;-77
2021/04/16 05:10:15;;;;;;;24.10;16.97;;;;;;;;;;5015691;28;20646;-77
2021/04/16 05:12:40;;;;;;;28.13;17.97;;;;;;;;;;5015622;28;20170;-77
2021/04/16 05:15:06;;;;;;;28.27;18.73;;;;;;;;;;5015302;28;20184;-77
2021/04/16 05:17:31;;;;;;;23.47;17.13;;;;;;;;;;5015712;28;20173;-78
2021/04/16 05:19:57;;;;;;;24.50;17.60;;;;;;;;;;5015463;28;20188;-78
2021/04/16 05:22:22;;;;;;;17.30;14.33;;;;;;;;;;5015488;28;20178;-77
2021/04/16 05:24:47;;;;;;;19.30;14.33;;;;;;;;;;5015062;28;20181;-77
2021/04/16 05:27:14;;;;;;;20.10;14.50;;;;;;;;;;5015404;28;20185;-77
2021/04/16 05:29:40;;;;;;;20.37;14.00;;;;;;;;;;5015548;28;20173;-77
2021/04/16 05:32:05;;;;;;;17.47;14.20;;;;;;;;;;5015032;28;20536;-78
2021/04/16 05:34:31;;;;;;;18.03;14.13;;;;;;;;;;5015533;28;20531;-78
2021/04/16 05:36:56;;;;;;;18.07;14.30;;;;;;;;;;5015546;28;20175;-78
2021/04/16 05:39:22;;;;;;;18.03;13.77;;;;;;;;;;5015685;28;20656;-78
2021/04/16 05:41:47;;;;;;;20.43;14.50;;;;;;;;;;5015160;28;20193;-78
2021/04/16 05:44:13;;;;;;;17.30;14.10;;;;;;;;;;5015438;28;20173;-77
2021/04/16 05:46:38;;;;;;;17.03;13.53;;;;;;;;;;5014866;28;20216;-78
2021/04/16 05:49:04;;;;;;;17.33;12.97;;;;;;;;;;5014811;28;20219;-77
2021/04/16 05:51:29;;;;;;;17.47;13.43;;;;;;;;;;5015009;28;20260;-78
2021/04/16 05:53:55;;;;;;;14.67;12.00;;;;;;;;;;5014875;28;20220;-77
2021/04/16 05:56:20;;;;;;;17.30;13.90;;;;;;;;;;5015443;28;20513;-77
2021/04/16 05:58:45;;;;;;;17.37;14.90;;;;;;;;;;5014891;28;20183;-78
2021/04/16 06:01:11;;;;;;;17.77;14.53;;;;;;;;;;5031547;28;20234;-77
2021/04/16 06:03:37;;;;;;;18.13;13.77;;;;;;;;;;5034644;28;20256;-78
2021/04/16 06:06:03;;;;;;;17.13;14.00;;;;;;;;;;5034354;28;20200;-77
2021/04/16 06:08:28;;;;;;;18.50;13.60;;;;;;;;;;5034652;28;20184;-77
2021/04/16 06:10:56;;;;;;;17.13;14.10;;;;;;;;;;5033167;28;20619;-78
2021/04/16 06:13:21;;;;;;;19.10;17.07;;;;;;;;;;5033789;28;20179;-78
2021/04/16 06:15:46;;;;;;;22.50;20.10;;;;;;;;;;5034423;28;20172;-78
2021/04/16 06:18:12;;;;;;;21.70;19.20;;;;;;;;;;5034337;28;20165;-78
2021/04/16 06:20:37;;;;;;;14.80;12.33;;;;;;;;;;5033901;28;20183;-78
2021/04/16 06:23:02;;;;;;;15.77;13.53;;;;;;;;;;5034475;28;20194;-78
2021/04/16 06:25:30;;;;;;;21.80;17.97;;;;;;;;;;5034321;28;20239;-78
2021/04/16 06:27:56;;;;;;;29.40;23.23;;;;;;;;;;5034090;28;20256;-77
2021/04/16 06:30:22;;;;;;;29.53;22.27;;;;;;;;;;5034075;28;20192;-77
2021/04/16 06:32:59;;;;;;;24.87;13.97;;;;;;;;;;5034076;28;20215;-77
2021/04/16 06:35:24;;;;;;;32.60;15.73;;;;;;;;;;5033807;28;20211;-77
2021/04/16 06:37:49;;;;;;;32.83;22.40;;;;;;;;;;5034214;28;20196;-78
2021/04/16 06:40:15;;;;;;;45.33;31.53;;;;;;;;;;5034192;28;20232;-77
2021/04/16 06:42:40;;;;;;;58.40;26.03;;;;;;;;;;5033851;28;20180;-77
2021/04/16 06:45:10;;;;;;;28.40;17.60;;;;;;;;;;5033521;28;20262;-77
2021/04/16 06:47:55;;;;;;;20.20;16.47;;;;;;;;;;5033532;28;20506;-78
2021/04/16 06:50:21;;;;;;;21.63;14.43;;;;;;;;;;5032258;28;20168;-78
2021/04/16 06:53:05;;;;;;;14.10;10.40;;;;;;;;;;5032136;28;20176;-78
2021/04/16 06:55:41;;;;;;;11.33;9.67;;;;;;;;;;5032015;28;20176;-78
2021/04/16 06:58:17;;;;;;;16.13;14.47;;;;;;;;;;5031770;28;20164;-79
2021/04/16 07:00:47;;;;;;;14.00;9.67;;;;;;;;;;5031230;28;20211;-78
2021/04/16 07:03:23;;;;;;;22.73;13.20;;;;;;;;;;5031832;28;20215;-78
2021/04/16 07:05:52;;;;;;;14.37;11.93;;;;;;;;;;5031591;28;20236;-78
2021/04/16 07:08:20;;;;;;;10.80;9.10;;;;;;;;;;5032157;28;20539;-78
2021/04/16 07:10:46;;;;;;;12.03;9.50;;;;;;;;;;5033866;28;20182;-78
2021/04/16 07:13:13;;;;;;;14.37;10.87;;;;;;;;;;5031993;28;20207;-77
2021/04/16 07:15:41;;;;;;;10.97;9.77;;;;;;;;;;5033835;28;20176;-78
2021/04/16 07:18:06;;;;;;;12.40;10.53;;;;;;;;;;5034146;28;20198;-78
2021/04/16 07:20:32;;;;;;;9.53;8.63;;;;;;;;;;5033557;28;20176;-77
2021/04/16 07:22:58;;;;;;;10.00;8.37;;;;;;;;;;5034790;28;20175;-77
2021/04/16 07:25:23;;;;;;;10.33;8.97;;;;;;;;;;5037526;28;20202;-77
2021/04/16 07:27:53;;;;;;;10.07;9.03;;;;;;;;;;5037084;28;20176;-78
2021/04/16 07:30:48;;;;;;;9.60;8.57;;;;;;;;;;5036010;28;20200;-78
2021/04/16 07:33:20;;;;;;;9.43;8.40;;;;;;;;;;5034414;28;20199;-78
2021/04/16 07:35:45;;;;;;;13.03;10.03;;;;;;;;;;5036903;28;20173;-77
2021/04/16 07:38:20;;;;;;;9.40;7.50;;;;;;;;;;5030266;28;20278;-78
2021/04/16 07:40:46;;;;;;;9.77;7.80;;;;;;;;;;5023681;28;20662;-78
2021/04/16 07:43:31;;;;;;;9.27;7.00;;;;;;;;;;5016001;28;20181;-78
2021/04/16 07:45:57;;;;;;;8.73;7.83;;;;;;;;;;5027492;28;20208;-80
2021/04/16 07:48:29;;;;;;;11.40;10.30;;;;;;;;;;5033953;28;20657;-80
2021/04/16 07:50:55;;;;;;;10.23;8.97;;;;;;;;;;5035443;28;20176;-79
2021/04/16 07:53:29;;;;;;;13.50;10.47;;;;;;;;;;5033098;28;20169;-80
2021/04/16 07:56:13;;;;;;;11.70;9.60;;;;;;;;;;5036749;28;20284;-79
2021/04/16 07:58:39;;;;;;;9.67;8.13;;;;;;;;;;5036966;28;20200;-80
2021/04/16 08:01:29;;;;;;;10.30;8.33;;;;;;;;;;5035984;28;20173;-80
2021/04/16 08:03:56;;;;;;;10.27;9.27;;;;;;;;;;5034977;28;20168;-80
2021/04/16 08:06:28;;;;;;;10.03;9.03;;;;;;;;;;5035887;28;20197;-80
2021/04/16 08:08:53;;;;;;;11.50;8.90;;;;;;;;;;5035817;28;20177;-83
2021/04/16 08:11:24;;;;;;;14.73;12.57;;;;;;;;;;5035948;28;20175;-79
2021/04/16 08:13:50;;;;;;;12.80;11.43;;;;;;;;;;5035573;28;20238;-79
2021/04/16 08:16:22;;;;;;;15.70;12.40;;;;;;;;;;5035710;28;20518;-79
2021/04/16 08:18:56;;;;;;;14.67;12.23;;;;;;;;;;5033419;28;20179;-78
2021/04/16 08:21:22;;;;;;;17.03;12.40;;;;;;;;;;5035978;28;20246;-78
2021/04/16 08:24:11;;;;;;;26.40;15.40;;;;;;;;;;5036092;28;20211;-78
2021/04/16 08:26:38;;;;;;;22.30;15.00;;;;;;;;;;5035591;28;20200;-78
2021/04/16 08:29:13;;;;;;;25.83;16.03;;;;;;;;;;5036119;28;20165;-78
2021/04/16 08:31:41;;;;;;;8.83;8.00;;;;;;;;;;5016282;28;20177;-78
2021/04/16 08:34:19;;;;;;;8.33;7.53;;;;;;;;;;5015491;28;20169;-78
2021/04/16 08:36:44;;;;;;;11.20;9.93;;;;;;;;;;5028988;28;20176;-78
2021/04/16 08:39:29;;;;;;;10.43;8.43;;;;;;;;;;5034828;28;20623;-78
2021/04/16 08:41:59;;;;;;;14.67;10.67;;;;;;;;;;5033624;28;20231;-78
2021/04/16 08:44:26;;;;;;;22.10;15.07;;;;;;;;;;5032591;28;20547;-78
2021/04/16 08:46:53;;;;;;;15.90;11.77;;;;;;;;;;5034798;28;20208;-78
2021/04/16 08:49:31;;;;;;;9.93;8.93;;;;;;;;;;5033935;28;20643;-78
2021/04/16 08:52:04;;;;;;;9.43;8.53;;;;;;;;;;5033734;28;20259;-78
2021/04/16 08:54:31;;;;;;;8.73;7.43;;;;;;;;;;5033839;28;20176;-79
2021/04/16 08:57:00;;;;;;;8.30;7.50;;;;;;;;;;5033540;28;20604;-79
2021/04/16 08:59:27;;;;;;;9.43;8.40;;;;;;;;;;5033443;28;20184;-79
2021/04/16 09:01:55;;;;;;;14.90;11.23;;;;;;;;;;5032380;28;20172;-81
2021/04/16 09:04:23;;;;;;;14.50;12.00;;;;;;;;;;5027271;28;20200;-79
2021/04/16 09:06:56;;;;;;;11.47;10.27;;;;;;;;;;5032864;28;20302;-78
2021/04/16 09:09:58;;;;;;;11.40;10.20;;;;;;;;;;5032277;28;20258;-79
2021/04/16 09:12:49;;;;;;;10.43;9.43;;;;;;;;;;5030215;28;20630;-79
2021/04/16 09:15:21;;;;;;;10.63;8.70;;;;;;;;;;5024206;28;20548;-78
2021/04/16 09:17:52;;;;;;;12.53;8.83;;;;;;;;;;5015175;28;20174;-79
2021/04/16 09:20:25;;;;;;;16.57;12.03;;;;;;;;;;5033034;28;20254;-79
2021/04/16 09:22:51;;;;;;;9.40;8.33;;;;;;;;;;5033711;28;20268;-78
2021/04/16 09:25:31;;;;;;;9.83;8.50;;;;;;;;;;5035015;28;20196;-79
2021/04/16 09:28:15;;;;;;;11.40;10.30;;;;;;;;;;5035026;28;20275;-79
2021/04/16 09:30:43;;;;;;;11.93;9.67;;;;;;;;;;5032141;28;20176;-79
2021/04/16 09:33:13;;;;;;;9.40;8.10;;;;;;;;;;5055116;28;20176;-79
2021/04/16 09:35:38;;;;;;;10.00;8.53;;;;;;;;;;5037880;28;20176;-78
2021/04/16 09:38:18;;;;;;;14.10;12.13;;;;;;;;;;5034655;28;20307;-78
2021/04/16 09:40:44;;;;;;;11.17;9.47;;;;;;;;;;5031590;28;20192;-79
2021/04/16 09:43:09;;;;;;;13.80;11.90;;;;;;;;;;5033834;28;20179;-80
2021/04/16 09:45:34;;;;;;;13.47;11.87;;;;;;;;;;5030721;28;20196;-78
2021/04/16 09:48:04;;;;;;;10.87;9.37;;;;;;;;;;5033341;28;20206;-79
2021/04/16 09:50:48;;;;;;;10.40;9.30;;;;;;;;;;5031660;28;20260;-79
2021/04/16 09:53:14;;;;;;;13.43;10.07;;;;;;;;;;5034217;28;20590;-79
2021/04/16 09:56:01;;;;;;;10.63;9.53;;;;;;;;;;5033971;28;20226;-79
2021/04/16 09:58:29;;;;;;;10.03;9.03;;;;;;;;;;5032348;28;20271;-80
2021/04/16 10:00:54;;;;;;;11.63;10.47;;;;;;;;;;5034336;28;20176;-80
2021/04/16 10:03:23;;;;;;;14.87;13.30;;;;;;;;;;5034215;28;20169;-79
2021/04/16 10:05:49;;;;;;;18.30;13.47;;;;;;;;;;5034302;28;20245;-79
2021/04/16 10:08:25;;;;;;;25.90;16.10;;;;;;;;;;5034061;28;20567;-80
2021/04/16 10:10:52;;;;;;;16.10;14.50;;;;;;;;;;5032130;28;20279;-79
2021/04/16 10:13:20;;;;;;;9.23;8.30;;;;;;;;;;5033845;28;20230;-79
2021/04/16 10:15:47;;;;;;;9.97;8.93;;;;;;;;;;5034158;28;20175;-80
2021/04/16 10:18:18;;;;;;;12.07;10.73;;;;;;;;;;5032606;28;20184;-81
2021/04/16 10:20:56;;;;;;;12.30;11.00;;;;;;;;;;5030586;28;20188;-79
2021/04/16 10:23:23;;;;;;;8.23;7.43;;;;;;;;;;5031745;28;20284;-79
2021/04/16 10:40:53;;;;;;;20.23;13.80;;;;;;;;;;5033346;28;20333;-79
2021/04/16 12:40:49;;;;;;;21.93;16.77;;;;;;;;;;5035830;28;20283;-79
2021/04/16 12:43:15;;;;;;;22.07;16.47;;;;;;;;;;5035555;28;20192;-79
2021/04/16 12:45:40;;;;;;;26.07;17.67;;;;;;;;;;5035708;28;20200;-79
2021/04/16 12:48:06;;;;;;;22.43;16.30;;;;;;;;;;5035571;28;20177;-79
2021/04/16 12:50:32;;;;;;;21.30;16.43;;;;;;;;;;5035838;28;20175;-80
2021/04/16 12:52:57;;;;;;;20.43;17.27;;;;;;;;;;5035053;28;20176;-80
2021/04/16 12:55:24;;;;;;;16.83;14.43;;;;;;;;;;5033999;28;20179;-80
2021/04/16 12:57:51;;;;;;;22.43;18.80;;;;;;;;;;5033965;28;20169;-80
2021/04/16 13:00:20;;;;;;;18.97;14.47;;;;;;;;;;5033378;28;20231;-80
2021/04/16 13:02:46;;;;;;;24.60;17.87;;;;;;;;;;5034110;28;20176;-80
2021/04/16 13:05:13;;;;;;;19.73;14.70;;;;;;;;;;5033240;28;20176;-80
2021/04/16 13:07:39;;;;;;;20.90;14.77;;;;;;;;;;5033594;28;20181;-79
2021/04/16 13:10:06;;;;;;;23.00;16.17;;;;;;;;;;5033255;28;20251;-81
2021/04/16 13:12:32;;;;;;;24.30;18.40;;;;;;;;;;5033501;28;20177;-79
2021/04/16 13:14:57;;;;;;;17.90;13.77;;;;;;;;;;5033561;28;20176;-80
2021/04/16 13:17:23;;;;;;;19.47;15.43;;;;;;;;;;5033683;28;20192;-80
2021/04/16 13:19:49;;;;;;;19.27;15.10;;;;;;;;;;5034333;28;20255;-80
2021/04/16 13:22:16;;;;;;;18.97;15.13;;;;;;;;;;5034366;28;20591;-79
2021/04/16 13:24:43;;;;;;;21.37;16.87;;;;;;;;;;5031961;28;20203;-79
2021/04/16 13:27:10;;;;;;;21.27;15.73;;;;;;;;;;5032797;28;20232;-78
2021/04/16 13:29:36;;;;;;;16.33;13.53;;;;;;;;;;5032519;28;20172;-79
2021/04/16 13:32:02;;;;;;;20.50;14.00;;;;;;;;;;5032311;28;20255;-79
2021/04/16 13:34:28;;;;;;;17.87;14.37;;;;;;;;;;5034328;28;20610;-79
2021/04/16 13:36:54;;;;;;;17.30;13.93;;;;;;;;;;5034549;28;20177;-79
2021/04/16 13:39:19;;;;;;;17.13;14.97;;;;;;;;;;5034757;28;20659;-79
2021/04/16 13:41:48;;;;;;;21.87;16.23;;;;;;;;;;5034866;28;20188;-79
2021/04/16 13:44:15;;;;;;;23.57;16.97;;;;;;;;;;5034318;28;20181;-79
2021/04/16 13:46:41;;;;;;;22.97;17.63;;;;;;;;;;5033865;28;20200;-79
2021/04/16 13:49:08;;;;;;;23.37;18.50;;;;;;;;;;5033952;28;20234;-79
2021/04/16 13:51:34;;;;;;;21.67;17.27;;;;;;;;;;5033090;28;20184;-79
2021/04/16 13:54:00;;;;;;;25.97;18.13;;;;;;;;;;5031733;28;20272;-79
2021/04/16 13:56:25;;;;;;;26.23;18.63;;;;;;;;;;5034130;28;20217;-78
2021/04/16 13:58:51;;;;;;;21.87;15.60;;;;;;;;;;5034152;28;20184;-79
2021/04/16 14:01:16;;;;;;;24.23;18.80;;;;;;;;;;5033608;28;20267;-79
2021/04/16 14:03:43;;;;;;;21.47;15.70;;;;;;;;;;5032401;28;20176;-79
2021/04/16 14:06:11;;;;;;;23.70;17.00;;;;;;;;;;5033652;28;20358;-79
2021/04/16 14:08:39;;;;;;;25.23;17.17;;;;;;;;;;5033530;28;20659;-79
2021/04/16 14:11:05;;;;;;;20.37;15.13;;;;;;;;;;5034151;28;20173;-79
2021/04/16 14:13:31;;;;;;;21.23;16.57;;;;;;;;;;5033814;28;20172;-77
2021/04/16 14:15:57;;;;;;;19.77;16.00;;;;;;;;;;5033889;28;20238;-78
2021/04/16 14:18:25;;;;;;;24.67;18.17;;;;;;;;;;5033809;28;20172;-79
2021/04/16 14:20:50;;;;;;;20.27;14.70;;;;;;;;;;5033273;28;20172;-78
2021/04/16 14:23:16;;;;;;;19.00;14.70;;;;;;;;;;5033802;28;20677;-78
2021/04/16 14:25:41;;;;;;;20.90;16.17;;;;;;;;;;5032179;28;20200;-78
2021/04/16 14:28:11;;;;;;;21.03;16.03;;;;;;;;;;5032277;28;20199;-78
2021/04/16 14:30:40;;;;;;;20.07;15.33;;;;;;;;;;5033775;28;20203;-78
2021/04/16 14:33:08;;;;;;;19.80;15.20;;;;;;;;;;5030572;28;20180;-77
2021/04/16 14:35:33;;;;;;;24.97;16.20;;;;;;;;;;5033401;28;20175;-79
2021/04/16 14:37:59;;;;;;;26.20;17.63;;;;;;;;;;5033640;28;20215;-77
2021/04/16 14:40:25;;;;;;;17.93;13.97;;;;;;;;;;5033781;28;20264;-78
2021/04/16 14:42:51;;;;;;;21.97;15.13;;;;;;;;;;5033927;28;20219;-77
2021/04/16 14:45:18;;;;;;;25.60;17.17;;;;;;;;;;5033660;28;20646;-78
2021/04/16 14:47:43;;;;;;;24.60;15.17;;;;;;;;;;5033902;28;20181;-78
2021/04/16 14:50:10;;;;;;;21.37;15.07;;;;;;;;;;5033933;28;20183;-77
2021/04/16 14:52:36;;;;;;;22.63;17.30;;;;;;;;;;5033706;28;20180;-78
2021/04/16 14:55:02;;;;;;;17.47;12.67;;;;;;;;;;5033701;28;20176;-78
2021/04/16 14:57:29;;;;;;;18.57;13.57;;;;;;;;;;5032703;28;20180;-79
2021/04/16 14:59:55;;;;;;;21.70;14.53;;;;;;;;;;5031255;28;20546;-79
2021/04/16 15:02:21;;;;;;;20.03;13.93;;;;;;;;;;5031362;28;20594;-79
2021/04/16 15:04:46;;;;;;;15.97;12.77;;;;;;;;;;5029875;28;20267;-79
2021/04/16 15:07:12;;;;;;;19.90;14.03;;;;;;;;;;5031236;28;20210;-78
2021/04/16 15:09:45;;;;;;;15.37;11.80;;;;;;;;;;5031203;28;20216;-78
2021/04/16 15:12:13;;;;;;;15.30;11.57;;;;;;;;;;5032708;28;20234;-78
2021/04/16 15:14:38;;;;;;;20.80;13.27;;;;;;;;;;5033109;28;20192;-77
2021/04/16 15:17:04;;;;;;;33.23;22.13;;;;;;;;;;5032506;28;20176;-79
2021/04/16 15:19:29;;;;;;;32.13;21.60;;;;;;;;;;5030745;28;20619;-79
2021/04/16 15:21:55;;;;;;;26.70;16.73;;;;;;;;;;5029570;28;20184;-79
2021/04/16 15:24:20;;;;;;;19.87;13.87;;;;;;;;;;5030730;28;20211;-77
2021/04/16 15:26:46;;;;;;;20.53;15.77;;;;;;;;;;5030527;28;20213;-79
2021/04/16 15:29:15;;;;;;;32.00;24.73;;;;;;;;;;5028427;28;20590;-78
2021/04/16 15:31:41;;;;;;;88.40;34.83;;;;;;;;;;5028655;28;20829;-82
2021/04/16 15:47:57;;;;;;;16.83;12.60;;;;;;;;;;5037072;28;20175;-79
2021/04/16 15:50:25;;;;;;;17.53;13.10;;;;;;;;;;5036948;28;20187;-79
2021/04/16 15:52:51;;;;;;;17.20;12.30;;;;;;;;;;5036113;28;20239;-78
2021/04/16 15:55:16;;;;;;;18.03;11.83;;;;;;;;;;5036875;28;20192;-78
2021/04/16 15:57:42;;;;;;;22.57;15.03;;;;;;;;;;5036490;28;20274;-78
2021/04/16 16:00:12;;;;;;;19.00;13.73;;;;;;;;;;5034528;28;20185;-78
2021/04/16 16:02:37;;;;;;;21.93;15.00;;;;;;;;;;5033732;28;20234;-78
2021/04/16 16:05:03;;;;;;;20.10;14.53;;;;;;;;;;5036111;28;20602;-78
2021/04/16 16:07:28;;;;;;;21.60;15.27;;;;;;;;;;5036270;28;20249;-78
2021/04/16 16:09:53;;;;;;;23.33;16.53;;;;;;;;;;5036031;28;20165;-78
2021/04/16 16:12:20;;;;;;;23.33;15.83;;;;;;;;;;5036483;28;20173;-79
2021/04/16 16:14:45;;;;;;;24.90;17.83;;;;;;;;;;5035350;28;20168;-78
2021/04/16 16:17:15;;;;;;;26.13;17.43;;;;;;;;;;5035889;28;20605;-78
2021/04/16 16:19:40;;;;;;;24.73;18.87;;;;;;;;;;5033483;28;20173;-79
2021/04/16 16:22:07;;;;;;;33.17;25.37;;;;;;;;;;5033415;28;20197;-79
2021/04/16 16:24:32;;;;;;;33.63;27.27;;;;;;;;;;5035759;28;20261;-78
2021/04/16 16:26:58;;;;;;;40.70;29.43;;;;;;;;;;5035548;28;20319;-79
2021/04/16 16:29:25;;;;;;;35.70;27.53;;;;;;;;;;5035909;28;20179;-78
2021/04/16 16:31:51;;;;;;;33.00;25.33;;;;;;;;;;5035186;28;20207;-78
2021/04/16 16:34:17;;;;;;;36.17;25.90;;;;;;;;;;5032952;28;20196;-78
2021/04/16 16:36:43;;;;;;;25.73;19.00;;;;;;;;;;5035639;28;20176;-78
2021/04/16 16:39:09;;;;;;;28.90;20.10;;;;;;;;;;5035348;28;20232;-78
2021/04/16 16:41:35;;;;;;;25.97;22.50;;;;;;;;;;5035591;28;20695;-78
2021/04/16 16:44:01;;;;;;;35.50;24.77;;;;;;;;;;5035719;28;20205;-78
2021/04/16 16:46:32;;;;;;;33.57;21.50;;;;;;;;;;5035524;28;20657;-78